Plum Branch, South Carolina
Current Conditions -  °F | °C
As of 6:55 AM on Monday 24 Nov 2014 (Local Time) from KHQU Reporting Station
Broken Clouds Broken Clouds  
Wind Chill: 65°   Ceiling: 3300
Heat Index: 65°   Visibility: 10mi
Dew Point: 65°   Wind: 3mph
Humidity: 100%   Direction: 170°S
Pressure: 29.86"   Gusts: NA
Location:  33.85°N, 82.26°W
Report Text: KHQU 241155Z AUTO 17003KT 10SM SCT008 SCT012 BKN033 18/18 A2986 RMK AO1 7//// T01820182 10186 20174
Loading
Personal Weather Stations






























Interactive Weather Map New forecast layout! Learn more

10-Day Weather Forecast

Advertisements
Track Severe Weather on mobile